createdAt,value
2019-02-24T00:03:04.955Z,65.80
2019-02-24T00:13:09.349Z,66.20
2019-02-24T00:23:13.391Z,66.40
2019-02-24T00:33:18.096Z,66.90
2019-02-24T00:43:22.699Z,67.30
2019-02-24T00:53:26.481Z,67.30
2019-02-24T01:03:30.313Z,67.90
2019-02-24T01:13:34.491Z,68.50
2019-02-24T01:23:38.815Z,69.10
2019-02-24T01:33:42.641Z,69.30
2019-02-24T01:43:46.699Z,69.80
2019-02-24T01:53:50.795Z,70.50
2019-02-24T02:03:54.606Z,70.90
2019-02-24T02:13:58.944Z,71.00
2019-02-24T02:24:03.238Z,71.50
2019-02-24T02:34:07.138Z,71.20
2019-02-24T02:44:13.418Z,72.10
2019-02-24T02:54:17.718Z,72.60
2019-02-24T03:04:22.153Z,72.50
2019-02-24T03:14:26.345Z,72.80
2019-02-24T03:24:30.434Z,73.30
2019-02-24T03:34:34.219Z,73.20
2019-02-24T03:44:38.009Z,74.10
2019-02-24T03:54:42.673Z,74.10
2019-02-24T04:04:46.507Z,74.40
2019-02-24T04:14:50.578Z,75.30
2019-02-24T04:24:54.733Z,75.90
2019-02-24T04:34:58.812Z,75.20
2019-02-24T04:45:02.877Z,75.50
2019-02-24T04:55:07.271Z,75.40
2019-02-24T05:05:11.838Z,76.00
2019-02-24T05:15:16.376Z,76.00
2019-02-24T05:25:20.750Z,76.30
2019-02-24T05:35:24.588Z,77.00
2019-02-24T05:45:28.415Z,76.50
2019-02-24T05:55:32.784Z,77.00
2019-02-24T06:05:37.087Z,77.40
2019-02-24T06:15:41.200Z,77.40
2019-02-24T06:25:45.007Z,76.70
2019-02-24T06:35:48.816Z,76.90
2019-02-24T06:45:52.625Z,76.70
2019-02-24T06:55:59.002Z,76.90
2019-02-24T07:06:02.807Z,76.80
2019-02-24T07:16:07.229Z,76.10
2019-02-24T07:26:11.348Z,75.90
2019-02-24T07:36:15.434Z,76.60
2019-02-24T07:46:19.537Z,76.20
2019-02-24T07:56:23.854Z,75.80
2019-02-24T08:06:27.626Z,75.90
2019-02-24T08:16:31.390Z,77.40
2019-02-24T08:26:35.172Z,77.40
2019-02-24T08:36:39.200Z,74.80
2019-02-24T08:46:42.967Z,72.60
2019-02-24T08:56:47.518Z,70.00
2019-02-24T09:06:51.346Z,68.90
2019-02-24T09:16:55.414Z,67.70
2019-02-24T09:27:00.174Z,66.70
2019-02-24T09:37:04.581Z,65.70
2019-02-24T09:47:08.628Z,64.80
2019-02-24T09:57:12.898Z,63.40
2019-02-24T10:07:17.515Z,63.40
2019-02-24T10:17:26.154Z,62.90
2019-02-24T10:27:30.405Z,62.20
2019-02-24T10:37:34.540Z,61.60
2019-02-24T10:47:38.613Z,61.20
2019-02-24T10:57:51.706Z,60.70
2019-02-24T11:07:55.775Z,61.00
2019-02-24T11:18:01.501Z,60.60
2019-02-24T11:28:05.832Z,60.10
2019-02-24T11:38:09.606Z,59.10
2019-02-24T11:48:13.882Z,58.80
2019-02-24T11:58:18.013Z,58.60
2019-02-24T12:08:24.192Z,58.30
2019-02-24T12:18:28.564Z,58.00
2019-02-24T12:28:32.962Z,57.50
2019-02-24T12:38:36.822Z,57.50
2019-02-24T12:48:41.123Z,57.20
2019-02-24T12:58:54.708Z,56.80
2019-02-24T13:08:58.854Z,56.60
2019-02-24T13:19:03.309Z,56.40
2019-02-24T13:29:08.038Z,55.40
2019-02-24T13:39:12.457Z,55.10
2019-02-24T13:49:16.531Z,55.00
2019-02-24T13:59:20.348Z,55.00
2019-02-24T14:09:24.734Z,55.10
2019-02-24T14:19:28.527Z,55.10
2019-02-24T14:29:38.172Z,54.60
2019-02-24T14:39:44.514Z,54.30
2019-02-24T14:49:48.550Z,54.20
2019-02-24T14:59:52.410Z,54.00
2019-02-24T15:09:56.175Z,53.70
2019-02-24T15:20:00.470Z,53.40
2019-02-24T15:30:06.994Z,50.70
2019-02-24T15:40:30.537Z,51.70
2019-02-24T15:50:34.322Z,53.00
2019-02-24T16:00:38.383Z,53.60
2019-02-24T16:10:42.721Z,53.90
2019-02-24T16:20:47.590Z,54.10
2019-02-24T16:30:51.446Z,54.50
2019-02-24T16:40:55.301Z,54.80
2019-02-24T16:50:59.363Z,55.10
2019-02-24T17:01:03.131Z,55.70
2019-02-24T17:11:07.830Z,56.20
2019-02-24T17:21:12.060Z,55.70
2019-02-24T17:31:16.693Z,57.10
2019-02-24T17:41:20.498Z,57.80
2019-02-24T17:51:26.514Z,58.60
2019-02-24T18:01:30.643Z,59.20
2019-02-24T18:11:34.746Z,59.70
2019-02-24T18:21:39.066Z,59.80
2019-02-24T18:31:44.573Z,60.90
2019-02-24T18:41:48.711Z,61.70
2019-02-24T18:51:53.100Z,62.60
2019-02-24T19:01:57.139Z,63.10
2019-02-24T19:12:02.703Z,63.70
2019-02-24T19:22:07.289Z,64.80
2019-02-24T19:32:11.698Z,65.30
2019-02-24T19:42:16.170Z,65.80
2019-02-24T19:52:20.833Z,66.20
2019-02-24T20:02:24.996Z,66.90
2019-02-24T20:12:29.434Z,67.50
2019-02-24T20:22:33.402Z,68.00
2019-02-24T20:32:37.781Z,68.50
2019-02-24T20:42:41.660Z,69.90
2019-02-24T20:52:45.702Z,69.40
2019-02-24T21:02:49.830Z,70.20
2019-02-24T21:12:54.130Z,70.60
2019-02-24T21:34:01.777Z,71.70
2019-02-24T21:44:06.182Z,72.40
2019-02-24T21:54:10.610Z,72.30
2019-02-24T22:04:16.671Z,73.20
2019-02-24T22:14:21.201Z,74.00
2019-02-24T22:24:25.632Z,74.10
2019-02-24T22:34:30.072Z,74.60
2019-02-24T22:44:34.455Z,75.10
2019-02-24T22:54:38.670Z,75.50
2019-02-24T23:04:43.042Z,75.90
2019-02-24T23:14:47.195Z,76.40
2019-02-24T23:24:51.235Z,76.70
2019-02-24T23:34:55.031Z,77.10
2019-02-24T23:44:58.830Z,77.60
2019-02-24T23:55:02.857Z,77.70
